KBVO

Bartlesville Municipal Airport

Bartlesville, Oklahoma, USA
METAR KBVO 162153Z AUTO 07004KT 10SM CLR 16/M07 A3022 RMK AO2 SLP233 T01561067
Observed Flight Rules
Dec-16 @ 21:53 UTC (11 minutes ago) Visual Flight Rules
Wind Visibility Clouds
70° at 4 knots 10 miles
  • Clear skies
Temperatures Readings
Current 16°C / 61°F
Dewpoint -7°C / 19°F
Humidity 20%
Altimeter 30.22" Hg
Pressure 1023.3 hPa
Elevation 210
METAR KBVO 162153Z AUTO 07004KT 10SM CLR 16/M07 A3022 RMK AO2 SLP233 T01561067
Observed Flight Rules
Dec-16 @ 21:53 UTC
(11 minutes ago)
VFR
Wind Visibility
70° at 4 knots 10 miles
Clouds
  • Clear skies
Temperature Dewpoint
16°C / 61°F -7°C / 19°F
Humidity Altimeter Pressure
20% 30.22" Hg 1023.3 hPa